sensor_id;sensor_type;location;lat;lon;timestamp;temperature;humidity
19567;DHT22;9930;49.240;8.548;2024-01-15T00:01:01;1.30;76.10
19567;DHT22;9930;49.240;8.548;2024-01-15T00:03:26;1.30;76.10
19567;DHT22;9930;49.240;8.548;2024-01-15T00:05:56;1.30;76.00
19567;DHT22;9930;49.240;8.548;2024-01-15T00:08:22;1.30;76.00
19567;DHT22;9930;49.240;8.548;2024-01-15T00:10:49;1.30;76.00
19567;DHT22;9930;49.240;8.548;2024-01-15T00:13:15;1.30;76.00
19567;DHT22;9930;49.240;8.548;2024-01-15T00:15:43;1.30;76.00
19567;DHT22;9930;49.240;8.548;2024-01-15T00:18:09;1.40;76.10
19567;DHT22;9930;49.240;8.548;2024-01-15T00:20:41;1.40;76.10
19567;DHT22;9930;49.240;8.548;2024-01-15T00:23:06;1.40;76.10
19567;DHT22;9930;49.240;8.548;2024-01-15T00:25:35;1.40;76.10
19567;DHT22;9930;49.240;8.548;2024-01-15T00:28:01;1.40;76.10
19567;DHT22;9930;49.240;8.548;2024-01-15T00:30:27;1.40;76.20
19567;DHT22;9930;49.240;8.548;2024-01-15T00:32:53;1.40;76.20
19567;DHT22;9930;49.240;8.548;2024-01-15T00:35:19;1.40;76.20
19567;DHT22;9930;49.240;8.548;2024-01-15T00:37:45;1.40;76.20
19567;DHT22;9930;49.240;8.548;2024-01-15T00:40:10;1.40;76.10
19567;DHT22;9930;49.240;8.548;2024-01-15T00:42:42;1.40;76.10
19567;DHT22;9930;49.240;8.548;2024-01-15T00:45:09;1.40;76.10
19567;DHT22;9930;49.240;8.548;2024-01-15T00:47:35;1.40;76.10
19567;DHT22;9930;49.240;8.548;2024-01-15T00:50:01;1.40;76.10
19567;DHT22;9930;49.240;8.548;2024-01-15T00:52:27;1.40;76.10
19567;DHT22;9930;49.240;8.548;2024-01-15T00:54:55;1.40;76.10
19567;DHT22;9930;49.240;8.548;2024-01-15T00:57:21;1.40;76.10
19567;DHT22;9930;49.240;8.548;2024-01-15T00:59:49;1.40;76.10
19567;DHT22;9930;49.240;8.548;2024-01-15T01:02:15;1.40;76.10
19567;DHT22;9930;49.240;8.548;2024-01-15T01:04:43;1.40;76.10
19567;DHT22;9930;49.240;8.548;2024-01-15T01:07:08;1.40;76.20
19567;DHT22;9930;49.240;8.548;2024-01-15T01:09:34;1.40;76.30
19567;DHT22;9930;49.240;8.548;2024-01-15T01:12:02;1.40;76.30
19567;DHT22;9930;49.240;8.548;2024-01-15T01:14:29;1.40;76.40
19567;DHT22;9930;49.240;8.548;2024-01-15T01:16:54;1.40;76.40
19567;DHT22;9930;49.240;8.548;2024-01-15T01:19:22;1.40;76.40
19567;DHT22;9930;49.240;8.548;2024-01-15T01:21:50;1.40;76.40
19567;DHT22;9930;49.240;8.548;2024-01-15T01:24:18;1.40;76.40
19567;DHT22;9930;49.240;8.548;2024-01-15T01:26:53;1.40;76.40
19567;DHT22;9930;49.240;8.548;2024-01-15T01:29:19;1.40;76.40
19567;DHT22;9930;49.240;8.548;2024-01-15T01:31:45;1.40;76.40
19567;DHT22;9930;49.240;8.548;2024-01-15T01:34:15;1.40;76.40
19567;DHT22;9930;49.240;8.548;2024-01-15T01:36:44;1.40;76.40
19567;DHT22;9930;49.240;8.548;2024-01-15T01:39:10;1.40;76.40
19567;DHT22;9930;49.240;8.548;2024-01-15T01:41:36;1.40;76.40
19567;DHT22;9930;49.240;8.548;2024-01-15T01:44:03;1.40;76.30
19567;DHT22;9930;49.240;8.548;2024-01-15T01:46:29;1.40;76.30
19567;DHT22;9930;49.240;8.548;2024-01-15T01:48:56;1.40;76.40
19567;DHT22;9930;49.240;8.548;2024-01-15T01:51:24;1.40;76.40
19567;DHT22;9930;49.240;8.548;2024-01-15T01:53:55;1.40;76.40
19567;DHT22;9930;49.240;8.548;2024-01-15T01:56:23;1.40;76.40
19567;DHT22;9930;49.240;8.548;2024-01-15T01:58:50;1.40;76.40
19567;DHT22;9930;49.240;8.548;2024-01-15T02:01:18;1.40;76.40
19567;DHT22;9930;49.240;8.548;2024-01-15T02:03:44;1.40;76.40
19567;DHT22;9930;49.240;8.548;2024-01-15T02:06:10;1.40;76.50
19567;DHT22;9930;49.240;8.548;2024-01-15T02:08:43;1.40;76.40
19567;DHT22;9930;49.240;8.548;2024-01-15T02:11:09;1.40;76.50
19567;DHT22;9930;49.240;8.548;2024-01-15T02:13:35;1.40;76.50
19567;DHT22;9930;49.240;8.548;2024-01-15T02:16:01;1.40;76.50
19567;DHT22;9930;49.240;8.548;2024-01-15T02:18:42;1.40;76.60
19567;DHT22;9930;49.240;8.548;2024-01-15T02:21:12;1.40;76.50
19567;DHT22;9930;49.240;8.548;2024-01-15T02:23:38;1.40;76.50
19567;DHT22;9930;49.240;8.548;2024-01-15T02:26:09;1.40;76.50
19567;DHT22;9930;49.240;8.548;2024-01-15T02:28:36;1.40;76.50
19567;DHT22;9930;49.240;8.548;2024-01-15T02:31:02;1.40;76.40
19567;DHT22;9930;49.240;8.548;2024-01-15T02:33:33;1.40;76.40
19567;DHT22;9930;49.240;8.548;2024-01-15T02:36:04;1.40;76.40
19567;DHT22;9930;49.240;8.548;2024-01-15T02:38:30;1.40;76.40
19567;DHT22;9930;49.240;8.548;2024-01-15T02:40:58;1.40;76.40
19567;DHT22;9930;49.240;8.548;2024-01-15T02:43:28;1.40;76.50
19567;DHT22;9930;49.240;8.548;2024-01-15T02:45:54;1.40;76.50
19567;DHT22;9930;49.240;8.548;2024-01-15T02:48:20;1.40;76.50
19567;DHT22;9930;49.240;8.548;2024-01-15T02:50:45;1.40;76.50
19567;DHT22;9930;49.240;8.548;2024-01-15T02:53:20;1.40;76.50
19567;DHT22;9930;49.240;8.548;2024-01-15T02:55:50;1.40;76.50
19567;DHT22;9930;49.240;8.548;2024-01-15T02:58:18;1.40;76.50
19567;DHT22;9930;49.240;8.548;2024-01-15T03:00:44;1.40;76.50
19567;DHT22;9930;49.240;8.548;2024-01-15T03:03:10;1.40;76.50
19567;DHT22;9930;49.240;8.548;2024-01-15T03:05:35;1.40;76.60
19567;DHT22;9930;49.240;8.548;2024-01-15T03:08:05;1.40;76.50
19567;DHT22;9930;49.240;8.548;2024-01-15T03:10:33;1.40;77.30
19567;DHT22;9930;49.240;8.548;2024-01-15T03:12:59;1.40;76.60
19567;DHT22;9930;49.240;8.548;2024-01-15T03:15:25;1.40;76.50
19567;DHT22;9930;49.240;8.548;2024-01-15T03:17:51;1.40;76.60
19567;DHT22;9930;49.240;8.548;2024-01-15T03:20:18;1.40;76.50
19567;DHT22;9930;49.240;8.548;2024-01-15T03:22:44;1.40;76.50
19567;DHT22;9930;49.240;8.548;2024-01-15T03:25:10;1.40;76.50
19567;DHT22;9930;49.240;8.548;2024-01-15T03:27:35;1.40;76.50
19567;DHT22;9930;49.240;8.548;2024-01-15T03:30:07;1.40;76.60
19567;DHT22;9930;49.240;8.548;2024-01-15T03:32:33;1.40;76.70
19567;DHT22;9930;49.240;8.548;2024-01-15T03:35:01;1.40;76.60
19567;DHT22;9930;49.240;8.548;2024-01-15T03:37:29;1.40;76.70
19567;DHT22;9930;49.240;8.548;2024-01-15T03:39:55;1.40;76.60
19567;DHT22;9930;49.240;8.548;2024-01-15T03:42:22;1.40;76.60
19567;DHT22;9930;49.240;8.548;2024-01-15T03:44:48;1.40;76.70
19567;DHT22;9930;49.240;8.548;2024-01-15T03:47:15;1.40;76.60
19567;DHT22;9930;49.240;8.548;2024-01-15T03:49:41;1.40;76.70
19567;DHT22;9930;49.240;8.548;2024-01-15T03:52:06;1.40;76.70
19567;DHT22;9930;49.240;8.548;2024-01-15T03:54:32;1.40;76.80
19567;DHT22;9930;49.240;8.548;2024-01-15T03:56:58;1.40;76.80
19567;DHT22;9930;49.240;8.548;2024-01-15T03:59:24;1.40;76.80
19567;DHT22;9930;49.240;8.548;2024-01-15T04:01:54;1.40;76.80
19567;DHT22;9930;49.240;8.548;2024-01-15T04:04:20;1.40;76.90
19567;DHT22;9930;49.240;8.548;2024-01-15T04:06:45;1.50;76.90
19567;DHT22;9930;49.240;8.548;2024-01-15T04:09:19;1.50;76.90
19567;DHT22;9930;49.240;8.548;2024-01-15T04:11:48;1.50;77.60
19567;DHT22;9930;49.240;8.548;2024-01-15T04:14:16;1.50;77.00
19567;DHT22;9930;49.240;8.548;2024-01-15T04:16:48;1.50;77.00
19567;DHT22;9930;49.240;8.548;2024-01-15T04:19:14;1.50;77.00
19567;DHT22;9930;49.240;8.548;2024-01-15T04:21:40;1.50;77.00
19567;DHT22;9930;49.240;8.548;2024-01-15T04:24:07;1.50;77.00
19567;DHT22;9930;49.240;8.548;2024-01-15T04:26:35;1.50;77.10
19567;DHT22;9930;49.240;8.548;2024-01-15T04:29:01;1.50;77.10
19567;DHT22;9930;49.240;8.548;2024-01-15T04:31:30;1.60;77.10
19567;DHT22;9930;49.240;8.548;2024-01-15T04:33:59;1.60;77.10
19567;DHT22;9930;49.240;8.548;2024-01-15T04:36:30;1.60;77.00
19567;DHT22;9930;49.240;8.548;2024-01-15T04:39:07;1.60;77.00
19567;DHT22;9930;49.240;8.548;2024-01-15T04:41:36;1.60;77.00
19567;DHT22;9930;49.240;8.548;2024-01-15T04:44:02;1.60;77.00
19567;DHT22;9930;49.240;8.548;2024-01-15T04:46:30;1.60;77.00
19567;DHT22;9930;49.240;8.548;2024-01-15T04:48:56;1.60;77.00
19567;DHT22;9930;49.240;8.548;2024-01-15T04:51:22;1.60;77.00
19567;DHT22;9930;49.240;8.548;2024-01-15T04:53:55;1.60;77.00
19567;DHT22;9930;49.240;8.548;2024-01-15T04:56:21;1.70;77.00
19567;DHT22;9930;49.240;8.548;2024-01-15T04:58:48;1.70;77.10
19567;DHT22;9930;49.240;8.548;2024-01-15T05:01:18;1.70;77.10
19567;DHT22;9930;49.240;8.548;2024-01-15T05:03:44;1.70;77.00
19567;DHT22;9930;49.240;8.548;2024-01-15T05:06:10;1.70;77.00
19567;DHT22;9930;49.240;8.548;2024-01-15T05:08:38;1.70;76.90
19567;DHT22;9930;49.240;8.548;2024-01-15T05:11:06;1.70;77.00
19567;DHT22;9930;49.240;8.548;2024-01-15T05:13:32;1.70;77.00
19567;DHT22;9930;49.240;8.548;2024-01-15T05:15:59;1.70;77.00
19567;DHT22;9930;49.240;8.548;2024-01-15T05:18:27;1.70;77.00
19567;DHT22;9930;49.240;8.548;2024-01-15T05:20:53;1.70;76.90
19567;DHT22;9930;49.240;8.548;2024-01-15T05:23:23;1.70;77.60
19567;DHT22;9930;49.240;8.548;2024-01-15T05:25:49;1.70;76.90
19567;DHT22;9930;49.240;8.548;2024-01-15T05:28:16;1.70;76.90
19567;DHT22;9930;49.240;8.548;2024-01-15T05:30:50;1.70;77.00
19567;DHT22;9930;49.240;8.548;2024-01-15T05:33:21;1.70;77.00
19567;DHT22;9930;49.240;8.548;2024-01-15T05:35:48;1.70;77.00
19567;DHT22;9930;49.240;8.548;2024-01-15T05:38:16;1.70;76.90
19567;DHT22;9930;49.240;8.548;2024-01-15T05:40:50;1.70;77.00
19567;DHT22;9930;49.240;8.548;2024-01-15T05:43:19;1.70;77.10
19567;DHT22;9930;49.240;8.548;2024-01-15T05:45:45;1.70;77.20
19567;DHT22;9930;49.240;8.548;2024-01-15T05:48:14;1.70;77.20
19567;DHT22;9930;49.240;8.548;2024-01-15T05:50:41;1.70;77.20
19567;DHT22;9930;49.240;8.548;2024-01-15T05:53:07;1.70;77.20
19567;DHT22;9930;49.240;8.548;2024-01-15T05:55:35;1.70;77.20
19567;DHT22;9930;49.240;8.548;2024-01-15T05:58:01;1.70;77.20
19567;DHT22;9930;49.240;8.548;2024-01-15T06:00:27;1.70;77.20
19567;DHT22;9930;49.240;8.548;2024-01-15T06:02:53;1.70;77.20
19567;DHT22;9930;49.240;8.548;2024-01-15T06:05:21;1.70;77.30
19567;DHT22;9930;49.240;8.548;2024-01-15T06:07:49;1.70;77.30
19567;DHT22;9930;49.240;8.548;2024-01-15T06:10:18;1.70;77.20
19567;DHT22;9930;49.240;8.548;2024-01-15T06:12:48;1.70;77.30
19567;DHT22;9930;49.240;8.548;2024-01-15T06:15:22;1.70;77.30
19567;DHT22;9930;49.240;8.548;2024-01-15T06:17:49;1.70;77.40
19567;DHT22;9930;49.240;8.548;2024-01-15T06:20:23;1.70;77.30
19567;DHT22;9930;49.240;8.548;2024-01-15T06:22:49;1.70;77.40
19567;DHT22;9930;49.240;8.548;2024-01-15T06:25:20;1.70;77.30
19567;DHT22;9930;49.240;8.548;2024-01-15T06:27:54;1.70;77.20
19567;DHT22;9930;49.240;8.548;2024-01-15T06:30:20;1.70;77.30
19567;DHT22;9930;49.240;8.548;2024-01-15T06:32:49;1.70;77.40
19567;DHT22;9930;49.240;8.548;2024-01-15T06:35:16;1.70;77.30
19567;DHT22;9930;49.240;8.548;2024-01-15T06:37:51;1.70;77.40
19567;DHT22;9930;49.240;8.548;2024-01-15T06:40:20;1.70;77.40
19567;DHT22;9930;49.240;8.548;2024-01-15T06:42:46;1.70;77.50
19567;DHT22;9930;49.240;8.548;2024-01-15T06:45:19;1.70;77.50
19567;DHT22;9930;49.240;8.548;2024-01-15T06:47:51;1.70;77.50
19567;DHT22;9930;49.240;8.548;2024-01-15T06:50:22;1.80;77.70
19567;DHT22;9930;49.240;8.548;2024-01-15T06:52:50;1.80;77.70
19567;DHT22;9930;49.240;8.548;2024-01-15T06:55:15;1.80;77.70
19567;DHT22;9930;49.240;8.548;2024-01-15T06:57:44;1.80;77.70
19567;DHT22;9930;49.240;8.548;2024-01-15T07:00:14;1.80;77.80
19567;DHT22;9930;49.240;8.548;2024-01-15T07:02:45;1.90;77.80
19567;DHT22;9930;49.240;8.548;2024-01-15T07:05:14;1.90;77.90
19567;DHT22;9930;49.240;8.548;2024-01-15T07:07:40;1.90;77.90
19567;DHT22;9930;49.240;8.548;2024-01-15T07:10:11;1.90;77.80
19567;DHT22;9930;49.240;8.548;2024-01-15T07:12:36;1.90;77.80
19567;DHT22;9930;49.240;8.548;2024-01-15T07:15:02;1.90;77.80
19567;DHT22;9930;49.240;8.548;2024-01-15T07:17:36;1.90;77.80
19567;DHT22;9930;49.240;8.548;2024-01-15T07:20:06;2.00;77.90
19567;DHT22;9930;49.240;8.548;2024-01-15T07:22:36;2.00;77.80
19567;DHT22;9930;49.240;8.548;2024-01-15T07:25:04;2.00;77.80
19567;DHT22;9930;49.240;8.548;2024-01-15T07:27:32;2.00;77.80
19567;DHT22;9930;49.240;8.548;2024-01-15T07:29:58;2.00;77.80
19567;DHT22;9930;49.240;8.548;2024-01-15T07:32:24;2.00;77.80
19567;DHT22;9930;49.240;8.548;2024-01-15T07:34:53;2.00;77.80
19567;DHT22;9930;49.240;8.548;2024-01-15T07:37:22;2.00;77.80
19567;DHT22;9930;49.240;8.548;2024-01-15T07:39:51;2.00;77.80
19567;DHT22;9930;49.240;8.548;2024-01-15T07:42:20;2.00;77.90
19567;DHT22;9930;49.240;8.548;2024-01-15T07:44:53;2.00;77.80
19567;DHT22;9930;49.240;8.548;2024-01-15T07:47:22;2.00;77.90
19567;DHT22;9930;49.240;8.548;2024-01-15T07:49:50;2.00;77.90
19567;DHT22;9930;49.240;8.548;2024-01-15T07:52:20;2.10;77.90
19567;DHT22;9930;49.240;8.548;2024-01-15T07:54:52;2.00;78.60
19567;DHT22;9930;49.240;8.548;2024-01-15T07:57:19;2.00;77.90
19567;DHT22;9930;49.240;8.548;2024-01-15T07:59:50;2.10;78.00
19567;DHT22;9930;49.240;8.548;2024-01-15T08:02:24;2.10;78.00
19567;DHT22;9930;49.240;8.548;2024-01-15T08:04:51;2.10;78.10
19567;DHT22;9930;49.240;8.548;2024-01-15T08:07:20;2.10;78.00
19567;DHT22;9930;49.240;8.548;2024-01-15T08:09:50;2.10;78.00
19567;DHT22;9930;49.240;8.548;2024-01-15T08:12:16;2.10;78.00
19567;DHT22;9930;49.240;8.548;2024-01-15T08:14:50;2.10;78.00
19567;DHT22;9930;49.240;8.548;2024-01-15T08:17:24;2.20;78.20
19567;DHT22;9930;49.240;8.548;2024-01-15T08:19:59;2.20;78.10
19567;DHT22;9930;49.240;8.548;2024-01-15T08:22:26;2.20;78.10
19567;DHT22;9930;49.240;8.548;2024-01-15T08:24:53;2.20;78.10
19567;DHT22;9930;49.240;8.548;2024-01-15T08:27:23;2.20;78.10
19567;DHT22;9930;49.240;8.548;2024-01-15T08:29:54;2.30;78.20
19567;DHT22;9930;49.240;8.548;2024-01-15T08:32:20;2.30;78.20
19567;DHT22;9930;49.240;8.548;2024-01-15T08:34:50;2.30;78.30
19567;DHT22;9930;49.240;8.548;2024-01-15T08:37:20;2.30;78.20
19567;DHT22;9930;49.240;8.548;2024-01-15T08:39:49;2.30;78.10
19567;DHT22;9930;49.240;8.548;2024-01-15T08:42:22;2.40;78.30
19567;DHT22;9930;49.240;8.548;2024-01-15T08:44:51;2.40;78.30
19567;DHT22;9930;49.240;8.548;2024-01-15T08:47:20;2.40;78.20
19567;DHT22;9930;49.240;8.548;2024-01-15T08:49:51;2.40;78.20
19567;DHT22;9930;49.240;8.548;2024-01-15T08:52:20;2.40;78.20
19567;DHT22;9930;49.240;8.548;2024-01-15T08:54:50;2.50;78.10
19567;DHT22;9930;49.240;8.548;2024-01-15T08:57:20;2.50;78.20
19567;DHT22;9930;49.240;8.548;2024-01-15T08:59:53;2.50;78.30
19567;DHT22;9930;49.240;8.548;2024-01-15T09:02:27;2.50;78.30
19567;DHT22;9930;49.240;8.548;2024-01-15T09:04:56;2.60;78.20
19567;DHT22;9930;49.240;8.548;2024-01-15T09:07:22;2.60;78.20
19567;DHT22;9930;49.240;8.548;2024-01-15T09:09:51;2.60;78.30
19567;DHT22;9930;49.240;8.548;2024-01-15T09:12:21;2.70;78.40
19567;DHT22;9930;49.240;8.548;2024-01-15T09:14:51;2.70;78.30
19567;DHT22;9930;49.240;8.548;2024-01-15T09:17:21;2.70;78.30
19567;DHT22;9930;49.240;8.548;2024-01-15T09:19:51;2.70;78.40
19567;DHT22;9930;49.240;8.548;2024-01-15T09:22:21;2.70;78.30
19567;DHT22;9930;49.240;8.548;2024-01-15T09:24:52;2.80;78.40
19567;DHT22;9930;49.240;8.548;2024-01-15T09:27:22;2.80;78.40
19567;DHT22;9930;49.240;8.548;2024-01-15T09:29:53;2.80;78.30
19567;DHT22;9930;49.240;8.548;2024-01-15T09:32:22;2.80;78.40
19567;DHT22;9930;49.240;8.548;2024-01-15T09:34:54;2.90;78.30
19567;DHT22;9930;49.240;8.548;2024-01-15T09:37:22;2.90;78.40
19567;DHT22;9930;49.240;8.548;2024-01-15T09:39:52;2.90;78.50
19567;DHT22;9930;49.240;8.548;2024-01-15T09:42:27;2.90;78.40
19567;DHT22;9930;49.240;8.548;2024-01-15T09:44:53;3.00;78.50
19567;DHT22;9930;49.240;8.548;2024-01-15T09:47:22;3.00;78.40
19567;DHT22;9930;49.240;8.548;2024-01-15T09:49:52;3.00;78.60
19567;DHT22;9930;49.240;8.548;2024-01-15T09:52:24;3.00;78.50
19567;DHT22;9930;49.240;8.548;2024-01-15T09:55:22;3.00;78.50
19567;DHT22;9930;49.240;8.548;2024-01-15T09:57:55;3.00;78.70
19567;DHT22;9930;49.240;8.548;2024-01-15T10:00:25;3.00;78.50
19567;DHT22;9930;49.240;8.548;2024-01-15T10:02:52;3.10;78.60
19567;DHT22;9930;49.240;8.548;2024-01-15T10:05:26;3.00;78.70
19567;DHT22;9930;49.240;8.548;2024-01-15T10:07:58;3.00;78.90
19567;DHT22;9930;49.240;8.548;2024-01-15T10:10:27;3.10;78.80
19567;DHT22;9930;49.240;8.548;2024-01-15T10:13:00;3.10;79.10
19567;DHT22;9930;49.240;8.548;2024-01-15T10:15:29;3.10;79.10
19567;DHT22;9930;49.240;8.548;2024-01-15T10:18:02;3.10;78.90
19567;DHT22;9930;49.240;8.548;2024-01-15T10:20:43;3.10;79.20
19567;DHT22;9930;49.240;8.548;2024-01-15T10:23:19;3.10;79.50
19567;DHT22;9930;49.240;8.548;2024-01-15T10:25:55;3.10;79.30
19567;DHT22;9930;49.240;8.548;2024-01-15T10:28:22;3.20;79.40
19567;DHT22;9930;49.240;8.548;2024-01-15T10:30:58;3.20;79.20
19567;DHT22;9930;49.240;8.548;2024-01-15T10:33:25;3.20;79.50
19567;DHT22;9930;49.240;8.548;2024-01-15T10:35:59;3.20;79.60
19567;DHT22;9930;49.240;8.548;2024-01-15T10:38:59;3.20;79.80
19567;DHT22;9930;49.240;8.548;2024-01-15T10:41:28;3.20;80.50
19567;DHT22;9930;49.240;8.548;2024-01-15T10:43:57;3.30;80.30
19567;DHT22;9930;49.240;8.548;2024-01-15T10:46:24;3.30;80.20
19567;DHT22;9930;49.240;8.548;2024-01-15T10:48:52;3.30;80.20
19567;DHT22;9930;49.240;8.548;2024-01-15T10:51:30;3.40;80.20
19567;DHT22;9930;49.240;8.548;2024-01-15T10:53:57;3.40;80.40
19567;DHT22;9930;49.240;8.548;2024-01-15T10:56:27;3.40;80.00
19567;DHT22;9930;49.240;8.548;2024-01-15T10:58:56;3.50;80.30
19567;DHT22;9930;49.240;8.548;2024-01-15T11:01:23;3.50;80.10
19567;DHT22;9930;49.240;8.548;2024-01-15T11:03:59;3.50;80.20
19567;DHT22;9930;49.240;8.548;2024-01-15T11:06:27;3.50;80.10
19567;DHT22;9930;49.240;8.548;2024-01-15T11:09:07;3.60;80.10
19567;DHT22;9930;49.240;8.548;2024-01-15T11:11:35;3.60;80.10
19567;DHT22;9930;49.240;8.548;2024-01-15T11:14:07;3.60;80.20
19567;DHT22;9930;49.240;8.548;2024-01-15T11:16:53;3.60;80.00
19567;DHT22;9930;49.240;8.548;2024-01-15T11:19:25;3.60;80.30
19567;DHT22;9930;49.240;8.548;2024-01-15T11:21:52;3.60;80.10
19567;DHT22;9930;49.240;8.548;2024-01-15T11:24:38;3.60;80.00
19567;DHT22;9930;49.240;8.548;2024-01-15T11:27:08;3.60;80.30
19567;DHT22;9930;49.240;8.548;2024-01-15T11:29:36;3.60;80.10
19567;DHT22;9930;49.240;8.548;2024-01-15T11:32:07;3.60;80.20
19567;DHT22;9930;49.240;8.548;2024-01-15T11:34:57;3.60;80.30
19567;DHT22;9930;49.240;8.548;2024-01-15T11:37:27;3.60;80.30
19567;DHT22;9930;49.240;8.548;2024-01-15T11:40:02;3.60;80.30
19567;DHT22;9930;49.240;8.548;2024-01-15T11:42:36;3.60;80.30
19567;DHT22;9930;49.240;8.548;2024-01-15T11:45:02;3.70;80.30
19567;DHT22;9930;49.240;8.548;2024-01-15T11:50:22;3.70;80.20
19567;DHT22;9930;49.240;8.548;2024-01-15T11:53:02;3.70;80.30
19567;DHT22;9930;49.240;8.548;2024-01-15T11:55:30;3.70;80.50
19567;DHT22;9930;49.240;8.548;2024-01-15T11:58:01;3.70;80.40
19567;DHT22;9930;49.240;8.548;2024-01-15T12:00:35;3.70;80.50
19567;DHT22;9930;49.240;8.548;2024-01-15T12:03:06;3.70;80.40
19567;DHT22;9930;49.240;8.548;2024-01-15T12:05:31;3.70;81.10
19567;DHT22;9930;49.240;8.548;2024-01-15T12:08:00;3.70;80.40
19567;DHT22;9930;49.240;8.548;2024-01-15T12:10:26;3.70;80.50
19567;DHT22;9930;49.240;8.548;2024-01-15T12:15:54;3.70;80.50
19567;DHT22;9930;49.240;8.548;2024-01-15T12:18:22;3.70;80.30
19567;DHT22;9930;49.240;8.548;2024-01-15T12:20:54;3.70;80.30
19567;DHT22;9930;49.240;8.548;2024-01-15T12:23:23;3.70;80.50
19567;DHT22;9930;49.240;8.548;2024-01-15T12:25:52;3.70;80.70
19567;DHT22;9930;49.240;8.548;2024-01-15T12:28:22;3.70;80.70
19567;DHT22;9930;49.240;8.548;2024-01-15T12:30:52;3.70;80.70
19567;DHT22;9930;49.240;8.548;2024-01-15T12:33:22;3.70;80.90
19567;DHT22;9930;49.240;8.548;2024-01-15T12:35:53;3.80;80.80
19567;DHT22;9930;49.240;8.548;2024-01-15T12:38:21;3.80;80.90
19567;DHT22;9930;49.240;8.548;2024-01-15T12:40:51;3.80;81.20
19567;DHT22;9930;49.240;8.548;2024-01-15T12:43:22;3.80;81.10
19567;DHT22;9930;49.240;8.548;2024-01-15T12:45:55;3.90;81.20
19567;DHT22;9930;49.240;8.548;2024-01-15T12:48:25;3.90;81.40
19567;DHT22;9930;49.240;8.548;2024-01-15T12:50:55;3.90;81.40
19567;DHT22;9930;49.240;8.548;2024-01-15T12:53:22;4.00;81.60
19567;DHT22;9930;49.240;8.548;2024-01-15T12:55:52;4.00;81.30
19567;DHT22;9930;49.240;8.548;2024-01-15T12:58:22;4.10;81.40
19567;DHT22;9930;49.240;8.548;2024-01-15T13:00:52;4.10;81.50
19567;DHT22;9930;49.240;8.548;2024-01-15T13:03:22;4.10;81.50
19567;DHT22;9930;49.240;8.548;2024-01-15T13:05:52;4.10;81.30
19567;DHT22;9930;49.240;8.548;2024-01-15T13:08:22;4.20;81.30
19567;DHT22;9930;49.240;8.548;2024-01-15T13:10:56;4.20;81.20
19567;DHT22;9930;49.240;8.548;2024-01-15T13:13:29;4.20;81.10
19567;DHT22;9930;49.240;8.548;2024-01-15T13:16:00;4.20;81.10
19567;DHT22;9930;49.240;8.548;2024-01-15T13:18:29;4.20;81.00
19567;DHT22;9930;49.240;8.548;2024-01-15T13:20:56;4.20;80.90
19567;DHT22;9930;49.240;8.548;2024-01-15T13:23:22;4.20;80.90
19567;DHT22;9930;49.240;8.548;2024-01-15T13:25:52;4.20;80.80
19567;DHT22;9930;49.240;8.548;2024-01-15T13:28:23;4.20;80.90
19567;DHT22;9930;49.240;8.548;2024-01-15T13:31:00;4.20;80.90
19567;DHT22;9930;49.240;8.548;2024-01-15T13:33:26;4.10;81.10
19567;DHT22;9930;49.240;8.548;2024-01-15T13:35:52;4.20;80.90
19567;DHT22;9930;49.240;8.548;2024-01-15T13:38:22;4.10;81.00
19567;DHT22;9930;49.240;8.548;2024-01-15T13:40:52;4.10;81.10
19567;DHT22;9930;49.240;8.548;2024-01-15T13:43:22;4.10;81.20
19567;DHT22;9930;49.240;8.548;2024-01-15T13:45:56;4.10;81.30
19567;DHT22;9930;49.240;8.548;2024-01-15T13:48:22;4.20;81.60
19567;DHT22;9930;49.240;8.548;2024-01-15T13:50:52;4.20;81.60
19567;DHT22;9930;49.240;8.548;2024-01-15T13:53:21;4.20;81.60
19567;DHT22;9930;49.240;8.548;2024-01-15T13:55:51;4.30;81.50
19567;DHT22;9930;49.240;8.548;2024-01-15T13:58:22;4.30;81.50
19567;DHT22;9930;49.240;8.548;2024-01-15T14:00:51;4.30;81.40
19567;DHT22;9930;49.240;8.548;2024-01-15T14:03:21;4.30;81.30
19567;DHT22;9930;49.240;8.548;2024-01-15T14:05:51;4.30;81.30
19567;DHT22;9930;49.240;8.548;2024-01-15T14:08:24;4.30;81.10
19567;DHT22;9930;49.240;8.548;2024-01-15T14:10:52;4.40;81.10
19567;DHT22;9930;49.240;8.548;2024-01-15T14:13:21;4.30;81.10
19567;DHT22;9930;49.240;8.548;2024-01-15T14:15:51;4.40;81.10
19567;DHT22;9930;49.240;8.548;2024-01-15T14:18:22;4.40;81.20
19567;DHT22;9930;49.240;8.548;2024-01-15T14:20:52;4.40;81.30
19567;DHT22;9930;49.240;8.548;2024-01-15T14:23:22;4.40;81.30
19567;DHT22;9930;49.240;8.548;2024-01-15T14:25:52;4.40;81.20
19567;DHT22;9930;49.240;8.548;2024-01-15T14:28:25;4.50;80.90
19567;DHT22;9930;49.240;8.548;2024-01-15T14:30:53;4.50;80.80
19567;DHT22;9930;49.240;8.548;2024-01-15T14:33:24;4.50;80.80
19567;DHT22;9930;49.240;8.548;2024-01-15T14:36:02;4.50;80.90
19567;DHT22;9930;49.240;8.548;2024-01-15T14:38:37;4.50;80.90
19567;DHT22;9930;49.240;8.548;2024-01-15T14:41:03;4.50;81.00
19567;DHT22;9930;49.240;8.548;2024-01-15T14:43:32;4.60;81.10
19567;DHT22;9930;49.240;8.548;2024-01-15T14:45:58;4.60;81.00
19567;DHT22;9930;49.240;8.548;2024-01-15T14:48:25;4.60;80.80
19567;DHT22;9930;49.240;8.548;2024-01-15T14:50:54;4.70;80.70
19567;DHT22;9930;49.240;8.548;2024-01-15T14:53:22;4.70;80.50
19567;DHT22;9930;49.240;8.548;2024-01-15T14:55:52;4.70;80.30
19567;DHT22;9930;49.240;8.548;2024-01-15T14:58:22;4.70;80.10
19567;DHT22;9930;49.240;8.548;2024-01-15T15:00:55;4.70;79.90
19567;DHT22;9930;49.240;8.548;2024-01-15T15:03:24;4.70;79.80
19567;DHT22;9930;49.240;8.548;2024-01-15T15:06:17;4.70;79.80
19567;DHT22;9930;49.240;8.548;2024-01-15T15:08:52;4.70;79.70
19567;DHT22;9930;49.240;8.548;2024-01-15T15:11:24;4.70;79.60
19567;DHT22;9930;49.240;8.548;2024-01-15T15:13:53;4.70;79.50
19567;DHT22;9930;49.240;8.548;2024-01-15T15:16:30;4.60;79.30
19567;DHT22;9930;49.240;8.548;2024-01-15T15:18:56;4.60;79.30
19567;DHT22;9930;49.240;8.548;2024-01-15T15:21:22;4.60;79.30
19567;DHT22;9930;49.240;8.548;2024-01-15T15:23:51;4.50;79.20
19567;DHT22;9930;49.240;8.548;2024-01-15T15:26:22;4.50;79.10
19567;DHT22;9930;49.240;8.548;2024-01-15T15:28:52;4.40;79.00
19567;DHT22;9930;49.240;8.548;2024-01-15T15:31:23;4.40;79.00
19567;DHT22;9930;49.240;8.548;2024-01-15T15:33:54;4.30;78.90
19567;DHT22;9930;49.240;8.548;2024-01-15T15:36:25;4.30;78.90
19567;DHT22;9930;49.240;8.548;2024-01-15T15:39:00;4.30;78.90
19567;DHT22;9930;49.240;8.548;2024-01-15T15:41:32;4.20;79.00
19567;DHT22;9930;49.240;8.548;2024-01-15T15:44:00;4.20;79.00
19567;DHT22;9930;49.240;8.548;2024-01-15T15:46:41;4.10;79.00
19567;DHT22;9930;49.240;8.548;2024-01-15T15:49:06;4.10;79.00
19567;DHT22;9930;49.240;8.548;2024-01-15T15:51:33;4.10;79.70
19567;DHT22;9930;49.240;8.548;2024-01-15T15:54:04;4.10;79.00
19567;DHT22;9930;49.240;8.548;2024-01-15T15:56:34;4.00;78.90
19567;DHT22;9930;49.240;8.548;2024-01-15T15:59:04;4.00;78.80
19567;DHT22;9930;49.240;8.548;2024-01-15T16:01:44;4.00;78.80
19567;DHT22;9930;49.240;8.548;2024-01-15T16:04:10;3.90;78.80
19567;DHT22;9930;49.240;8.548;2024-01-15T16:06:36;3.90;78.90
19567;DHT22;9930;49.240;8.548;2024-01-15T16:09:02;3.90;79.10
19567;DHT22;9930;49.240;8.548;2024-01-15T16:11:31;3.90;79.10
19567;DHT22;9930;49.240;8.548;2024-01-15T16:13:57;3.90;79.20
19567;DHT22;9930;49.240;8.548;2024-01-15T16:16:31;3.90;79.20
19567;DHT22;9930;49.240;8.548;2024-01-15T16:19:00;3.90;79.20
19567;DHT22;9930;49.240;8.548;2024-01-15T16:21:26;3.90;79.10